Time;durP1;ratioP1;P1;durP2;ratioP2;P2;SDS_P1;SDS_P2;PMS_P1;PMS_P2;Temp;Humidity;BMP_temperature;BMP_pressure;BME280_temperature;BME280_humidity;BME280_pressure;Samples;Min_cycle;Max_cycle;Signal;HPM_P1;HPM_P2
2022/12/11 00:00:51;;;;;;;4.70;1.38;;;26.40;78.50;;;;;;5070715;28;20390;-80
2022/12/11 00:03:18;;;;;;;4.05;1.40;;;26.60;78.90;;;;;;5070888;28;20386;-82
2022/12/11 00:05:45;;;;;;;2.28;1.20;;;27.10;77.60;;;;;;5070787;28;20374;-81
2022/12/11 00:08:13;;;;;;;3.30;1.20;;;27.10;75.10;;;;;;5070501;28;20424;-80
2022/12/11 00:10:46;;;;;;;3.67;1.40;;;27.10;75.80;;;;;;5070505;28;20410;-80
2022/12/11 00:13:13;;;;;;;4.28;1.20;;;27.00;75.50;;;;;;5070628;28;20393;-85
2022/12/11 00:15:40;;;;;;;3.78;1.30;;;27.30;73.60;;;;;;5070813;28;20435;-82
2022/12/11 00:18:11;;;;;;;2.97;1.40;;;27.30;73.90;;;;;;5070539;28;20358;-81
2022/12/11 00:20:38;;;;;;;4.22;1.33;;;27.40;72.90;;;;;;5070989;28;20450;-82
2022/12/11 00:23:05;;;;;;;5.05;1.45;;;27.20;71.80;;;;;;5070510;28;20370;-82
2022/12/11 00:25:32;;;;;;;3.13;1.20;;;27.20;72.70;;;;;;5070331;28;20402;-84
2022/12/11 00:27:59;;;;;;;3.88;1.50;;;27.40;72.60;;;;;;5070424;28;20413;-81
2022/12/11 00:30:26;;;;;;;2.97;1.25;;;27.90;71.70;;;;;;5070374;28;20449;-82
2022/12/11 00:32:53;;;;;;;3.17;1.13;;;28.10;70.40;;;;;;5070637;28;20784;-81
2022/12/11 00:35:20;;;;;;;23.88;2.30;;;28.50;70.00;;;;;;5070164;28;20396;-83
2022/12/11 00:37:47;;;;;;;23.30;2.65;;;28.80;69.70;;;;;;5070087;28;20854;-78
2022/12/11 00:40:14;;;;;;;5.15;1.50;;;28.90;69.00;;;;;;5070050;28;20865;-79
2022/12/11 00:42:41;;;;;;;4.32;1.98;;;29.00;68.60;;;;;;5070081;28;20460;-77
2022/12/11 00:45:09;;;;;;;3.97;1.80;;;29.40;67.10;;;;;;5070038;28;20387;-79
2022/12/11 00:47:35;;;;;;;2.40;1.20;;;29.50;65.50;;;;;;5069847;28;20398;-78
2022/12/11 00:50:03;;;;;;;2.67;1.20;;;29.40;65.70;;;;;;5069850;28;20370;-79
2022/12/11 00:52:30;;;;;;;3.00;1.15;;;29.50;65.80;;;;;;5069917;28;20374;-80
2022/12/11 00:54:57;;;;;;;15.50;2.20;;;29.40;64.40;;;;;;5069788;28;20379;-84
2022/12/11 00:57:24;;;;;;;2.83;1.10;;;29.20;65.60;;;;;;5069915;28;20498;-80
2022/12/11 00:59:51;;;;;;;12.30;2.25;;;29.20;65.10;;;;;;5051420;28;20398;-79
2022/12/11 01:02:18;;;;;;;11.30;2.30;;;29.20;65.80;;;;;;5069743;28;20885;-80
2022/12/11 01:04:45;;;;;;;4.55;1.30;;;29.20;65.60;;;;;;5069605;28;20919;-78
2022/12/11 01:07:12;;;;;;;41.70;3.97;;;29.30;65.40;;;;;;5069328;28;20436;-82
2022/12/11 01:12:25;;;;;;;12.88;2.03;;;29.40;64.10;;;;;;5069655;28;20405;-78
2022/12/11 01:14:52;;;;;;;9.20;1.60;;;29.50;63.80;;;;;;5069465;28;20490;-76
2022/12/11 01:17:19;;;;;;;3.80;1.25;;;29.60;63.70;;;;;;5069625;28;20918;-87
2022/12/11 01:19:46;;;;;;;2.72;1.20;;;29.50;62.20;;;;;;5073119;28;20480;-80
2022/12/11 01:22:13;;;;;;;17.93;2.03;;;29.40;64.00;;;;;;5073037;28;20862;-82
2022/12/11 01:24:40;;;;;;;3.92;1.40;;;29.50;64.10;;;;;;5072929;28;20432;-82
2022/12/11 01:27:07;;;;;;;8.52;1.90;;;29.50;63.60;;;;;;5072770;28;20378;-77
2022/12/11 01:29:49;;;;;;;4.40;1.40;;;29.80;62.70;;;;;;5108180;27;20662;-84
2022/12/11 01:32:16;;;;;;;8.57;1.60;;;29.80;62.30;;;;;;5100073;28;20395;-78
2022/12/11 01:34:43;;;;;;;5.15;1.20;;;30.20;62.80;;;;;;5091404;28;20375;-86
2022/12/11 01:37:10;;;;;;;9.98;1.60;;;30.40;60.80;;;;;;5101109;28;20425;-85
2022/12/11 01:39:40;;;;;;;2.97;1.20;;;30.90;60.20;;;;;;5105316;28;20405;-84
2022/12/11 01:42:13;;;;;;;4.93;1.50;;;31.10;60.10;;;;;;5106620;28;20382;-83
2022/12/11 01:44:40;;;;;;;7.25;1.48;;;31.30;60.70;;;;;;5107921;28;20407;-86
2022/12/11 01:47:07;;;;;;;6.63;1.65;;;31.90;57.60;;;;;;5096035;28;20455;-83
2022/12/11 01:49:35;;;;;;;6.05;1.70;;;32.10;58.30;;;;;;5104181;28;20409;-84
2022/12/11 01:52:12;;;;;;;3.70;1.40;;;32.10;58.40;;;;;;5096001;28;21059;-82
2022/12/11 01:54:39;;;;;;;3.60;1.33;;;32.00;57.60;;;;;;5098990;28;20463;-83
2022/12/11 01:57:10;;;;;;;3.60;1.30;;;32.00;56.80;;;;;;5103702;28;20492;-81
2022/12/11 01:59:40;;;;;;;3.45;1.45;;;32.30;57.00;;;;;;5101213;28;20865;-82
2022/12/11 02:02:11;;;;;;;2.65;1.30;;;32.40;57.60;;;;;;5103050;28;20426;-81
2022/12/11 02:04:39;;;;;;;7.80;1.60;;;33.00;57.60;;;;;;5097140;28;20848;-81
2022/12/11 02:07:06;;;;;;;3.45;1.45;;;33.40;56.60;;;;;;5107606;28;20928;-81
2022/12/11 02:09:35;;;;;;;6.33;1.40;;;33.80;55.00;;;;;;5103972;28;20407;-84
2022/12/11 02:12:34;;;;;;;4.55;1.40;;;33.50;54.90;;;;;;5096452;28;20437;-82
2022/12/11 02:15:31;;;;;;;5.70;1.30;;;33.40;55.00;;;;;;5096140;28;20749;-81
2022/12/11 02:18:07;;;;;;;3.37;1.10;;;33.30;53.50;;;;;;5098373;28;20458;-84
2022/12/11 02:20:44;;;;;;;3.20;1.20;;;33.20;55.60;;;;;;5106714;28;20387;-83
2022/12/11 02:23:19;;;;;;;3.47;1.50;;;34.20;52.40;;;;;;5097986;28;20383;-82
2022/12/11 02:26:13;;;;;;;4.35;1.70;;;34.10;53.40;;;;;;5097547;28;20892;-81
2022/12/11 02:28:50;;;;;;;5.32;1.45;;;34.10;53.80;;;;;;5095779;28;20919;-81
2022/12/11 02:31:26;;;;;;;3.50;1.42;;;34.00;53.10;;;;;;5094097;28;20378;-81
2022/12/11 02:33:59;;;;;;;5.07;1.40;;;34.20;53.00;;;;;;5098410;28;20846;-82
2022/12/11 02:36:31;;;;;;;7.43;1.73;;;34.40;52.40;;;;;;5106956;28;20400;-81
2022/12/11 02:39:01;;;;;;;5.85;1.42;;;34.80;51.30;;;;;;5104928;28;20372;-81
2022/12/11 02:41:30;;;;;;;5.95;1.52;;;34.90;51.40;;;;;;5093057;28;20429;-81
2022/12/11 02:43:59;;;;;;;5.93;1.40;;;34.70;51.70;;;;;;5078225;28;20747;-80
2022/12/11 02:46:28;;;;;;;4.00;1.50;;;35.00;51.40;;;;;;5087352;28;20372;-79
2022/12/11 02:48:57;;;;;;;4.40;1.25;;;35.80;50.80;;;;;;5093042;28;20449;-80
2022/12/11 02:51:32;;;;;;;4.22;1.50;;;36.40;50.90;;;;;;5092993;28;20376;-79
2022/12/11 02:54:00;;;;;;;6.22;1.30;;;37.10;49.70;;;;;;5092521;28;20369;-80
2022/12/11 02:56:37;;;;;;;3.47;1.48;;;37.90;49.00;;;;;;5093221;28;20400;-80
2022/12/11 02:59:12;;;;;;;10.70;1.50;;;37.90;47.70;;;;;;5089615;28;20414;-78
2022/12/11 03:01:39;;;;;;;1.93;1.20;;;37.80;46.90;;;;;;5090664;28;20376;-81
2022/12/11 03:04:06;;;;;;;3.20;1.30;;;37.30;47.30;;;;;;5089163;28;20413;-82
2022/12/11 03:06:41;;;;;;;3.70;1.30;;;37.00;47.60;;;;;;5078881;28;20870;-84
2022/12/11 03:09:08;;;;;;;4.82;1.40;;;36.90;47.50;;;;;;5112064;27;20420;-82
2022/12/11 03:11:36;;;;;;;3.45;1.30;;;36.60;47.50;;;;;;5087371;28;20378;-79
2022/12/11 03:14:03;;;;;;;2.90;1.30;;;36.80;48.10;;;;;;5072792;28;20477;-80
2022/12/11 03:16:54;;;;;;;2.45;1.33;;;37.50;46.20;;;;;;5088470;28;20392;-82
2022/12/11 03:19:28;;;;;;;5.30;1.27;;;38.40;46.20;;;;;;5088422;28;20401;-82
2022/12/11 03:22:10;;;;;;;4.20;1.40;;;38.30;45.40;;;;;;5076322;28;20420;-82
2022/12/11 03:24:58;;;;;;;4.40;1.60;;;38.00;46.70;;;;;;5072520;28;20913;-84
2022/12/11 03:27:44;;;;;;;3.70;1.20;;;38.30;45.90;;;;;;5079110;28;20884;-83
2022/12/11 03:30:17;;;;;;;3.25;1.40;;;38.70;45.10;;;;;;5075068;28;20472;-85
2022/12/11 03:32:52;;;;;;;4.32;1.40;;;38.60;45.40;;;;;;5077453;28;20380;-85
2022/12/11 03:35:27;;;;;;;2.65;1.27;;;38.20;45.40;;;;;;5072034;28;20382;-85
2022/12/11 03:37:55;;;;;;;3.05;1.30;;;38.50;44.60;;;;;;5087454;28;20376;-85
2022/12/11 03:40:24;;;;;;;3.63;1.25;;;39.10;44.30;;;;;;5080579;28;20373;-83
2022/12/11 03:42:55;;;;;;;3.30;1.20;;;39.00;44.20;;;;;;5089072;28;20372;-84
2022/12/11 03:45:24;;;;;;;2.20;1.20;;;38.90;45.10;;;;;;5074301;28;20448;-84
2022/12/11 03:47:55;;;;;;;3.50;1.30;;;38.90;44.40;;;;;;5080568;28;20402;-85
2022/12/11 03:50:23;;;;;;;3.22;1.30;;;39.20;44.50;;;;;;5080087;28;20380;-84
2022/12/11 03:52:52;;;;;;;2.27;1.20;;;39.50;43.90;;;;;;5088472;28;20386;-83
2022/12/11 03:55:22;;;;;;;4.45;1.58;;;39.40;43.80;;;;;;5082979;28;20430;-87
2022/12/11 03:57:49;;;;;;;4.63;1.50;;;38.90;44.60;;;;;;5077319;28;20388;-83
2022/12/11 04:00:19;;;;;;;3.53;1.40;;;39.60;45.80;;;;;;5080270;28;20392;-87
2022/12/11 04:03:11;;;;;;;3.13;1.30;;;39.40;44.00;;;;;;5073467;28;20432;-86
2022/12/11 04:05:33;;;;;;;2.13;1.20;;;39.20;44.50;;;;;;5078665;28;20372;-85
2022/12/11 04:08:00;;;;;;;4.63;1.50;;;39.40;44.20;;;;;;5076371;28;20441;-81
2022/12/11 04:10:28;;;;;;;2.92;1.30;;;39.40;44.90;;;;;;5091421;28;20369;-84
2022/12/11 04:12:55;;;;;;;3.28;1.40;;;39.50;45.50;;;;;;5074256;28;20412;-83
2022/12/11 04:15:22;;;;;;;3.50;1.33;;;40.10;44.40;;;;;;5086662;28;20823;-86
2022/12/11 04:26:14;;;;;;;3.25;1.30;;;40.10;41.50;;;;;;5091379;28;20380;-81
2022/12/11 04:28:42;;;;;;;4.78;1.30;;;39.50;43.20;;;;;;5091574;28;20406;-83
2022/12/11 04:31:14;;;;;;;3.90;1.20;;;39.40;42.90;;;;;;5091015;28;20766;-84
2022/12/11 04:33:42;;;;;;;3.40;1.30;;;39.20;43.30;;;;;;5091093;28;20384;-84
2022/12/11 04:36:09;;;;;;;3.67;1.20;;;39.20;42.40;;;;;;5090954;28;20375;-84
2022/12/11 04:38:36;;;;;;;3.40;1.30;;;39.20;44.00;;;;;;5091328;28;20369;-84
2022/12/11 04:41:14;;;;;;;4.70;1.35;;;39.10;43.00;;;;;;5090942;28;20452;-83
2022/12/11 04:43:45;;;;;;;2.70;1.30;;;39.50;43.00;;;;;;5091051;28;20371;-82
2022/12/11 04:46:17;;;;;;;3.80;1.20;;;39.40;42.60;;;;;;5091084;28;20388;-83
2022/12/11 04:48:46;;;;;;;1.52;1.05;;;40.20;42.00;;;;;;5090913;28;20432;-82
2022/12/11 04:51:13;;;;;;;2.55;1.10;;;40.10;41.60;;;;;;5090775;28;20379;-84
2022/12/11 04:53:40;;;;;;;2.67;1.10;;;40.40;41.30;;;;;;5090945;28;20380;-84
2022/12/11 04:56:11;;;;;;;2.65;1.27;;;40.50;41.00;;;;;;5090595;28;20380;-83
2022/12/11 04:58:39;;;;;;;2.90;1.27;;;40.70;41.90;;;;;;5090846;28;20372;-84
2022/12/11 05:01:20;;;;;;;6.78;1.40;;;40.50;41.30;;;;;;5090735;28;20475;-83
2022/12/11 05:03:47;;;;;;;2.75;1.10;;;40.50;40.10;;;;;;5090292;28;20376;-84
2022/12/11 05:06:14;;;;;;;3.78;1.40;;;39.40;41.60;;;;;;5090652;28;20395;-83
2022/12/11 05:08:43;;;;;;;3.15;1.00;;;38.10;41.60;;;;;;5090292;28;20454;-84
2022/12/11 05:11:13;;;;;;;3.97;1.30;;;37.30;43.60;;;;;;5089901;28;20365;-83
2022/12/11 05:13:41;;;;;;;3.05;1.20;;;36.50;44.10;;;;;;5090344;28;20907;-83
2022/12/11 05:16:10;;;;;;;2.90;1.20;;;36.80;44.30;;;;;;5090414;28;20832;-83
2022/12/11 05:18:37;;;;;;;2.78;1.27;;;36.90;43.50;;;;;;5090298;28;20377;-83
2022/12/11 05:21:07;;;;;;;2.22;1.20;;;36.40;43.60;;;;;;5090500;28;20386;-83
2022/12/11 05:23:35;;;;;;;3.50;1.30;;;36.00;44.80;;;;;;5090416;28;20459;-82
2022/12/11 05:26:05;;;;;;;3.13;1.20;;;35.40;45.30;;;;;;5090267;28;20878;-83
2022/12/11 05:28:35;;;;;;;4.93;1.40;;;35.10;46.10;;;;;;5090168;28;20396;-82
2022/12/11 05:31:11;;;;;;;3.60;1.10;;;35.80;46.20;;;;;;5086565;28;20370;-83
2022/12/11 05:33:38;;;;;;;4.25;1.30;;;36.90;45.30;;;;;;5081420;28;20450;-82
2022/12/11 05:36:07;;;;;;;2.63;1.20;;;37.80;44.00;;;;;;5088920;28;20806;-83
2022/12/11 05:38:34;;;;;;;3.05;1.40;;;38.50;43.70;;;;;;5073478;28;20805;-82
2022/12/11 05:41:07;;;;;;;3.17;1.20;;;38.40;43.20;;;;;;5072968;28;20851;-84
2022/12/11 05:43:36;;;;;;;5.10;1.20;;;37.90;43.10;;;;;;5081566;28;20467;-83
2022/12/11 05:46:17;;;;;;;1.88;1.20;;;37.70;43.00;;;;;;5090455;28;20463;-84
2022/12/11 05:48:46;;;;;;;2.17;1.10;;;38.10;44.20;;;;;;5088927;28;20400;-84
2022/12/11 05:51:15;;;;;;;2.20;1.20;;;39.00;43.20;;;;;;5086973;28;20736;-85
2022/12/11 05:53:44;;;;;;;6.13;2.08;;;39.60;42.30;;;;;;5091520;28;20447;-84
2022/12/11 05:56:17;;;;;;;5.10;1.50;;;39.80;44.30;;;;;;5081615;28;20396;-85
2022/12/11 05:58:45;;;;;;;3.57;1.50;;;39.30;45.70;;;;;;5087466;28;20392;-91
2022/12/11 06:01:34;;;;;;;5.25;1.70;;;38.40;47.20;;;;;;5089323;28;20383;-82
2022/12/11 06:04:01;;;;;;;4.20;1.25;;;37.70;48.00;;;;;;5084202;28;20453;-82
2022/12/11 06:06:32;;;;;;;4.57;1.30;;;37.70;47.80;;;;;;5076962;28;20390;-82
2022/12/11 06:09:00;;;;;;;2.92;1.30;;;37.50;48.50;;;;;;5081172;28;20410;-83
2022/12/11 06:11:29;;;;;;;6.97;1.88;;;37.10;49.00;;;;;;5085611;28;20728;-83
2022/12/11 06:13:57;;;;;;;3.17;1.20;;;36.50;50.20;;;;;;5089741;28;20399;-83
2022/12/11 06:16:24;;;;;;;2.95;1.20;;;35.70;50.40;;;;;;5084432;28;20445;-83
2022/12/11 06:18:52;;;;;;;3.00;1.30;;;35.10;51.50;;;;;;5079957;28;20391;-83
2022/12/11 06:21:25;;;;;;;4.87;1.70;;;34.70;52.10;;;;;;5084192;28;20375;-82
2022/12/11 06:23:54;;;;;;;4.07;1.30;;;34.30;53.30;;;;;;5074753;28;20421;-84
2022/12/11 06:26:23;;;;;;;3.22;1.50;;;34.30;54.70;;;;;;5091669;28;20447;-84
2022/12/11 06:28:50;;;;;;;3.40;1.40;;;34.50;54.90;;;;;;5076863;28;20781;-80
2022/12/11 06:31:18;;;;;;;3.55;1.63;;;34.90;54.20;;;;;;5086906;28;20384;-85
2022/12/11 06:33:46;;;;;;;4.30;1.60;;;35.40;52.90;;;;;;5076759;28;20520;-85
2022/12/11 06:36:19;;;;;;;3.00;1.60;;;35.90;52.80;;;;;;5091184;28;20880;-80
2022/12/11 06:38:46;;;;;;;2.80;1.30;;;36.40;51.30;;;;;;5093527;28;20947;-83
2022/12/11 06:41:14;;;;;;;3.15;1.35;;;36.60;50.60;;;;;;5093139;28;20391;-79
2022/12/11 06:43:42;;;;;;;3.58;1.40;;;36.70;50.70;;;;;;5085561;28;20386;-80
2022/12/11 06:46:13;;;;;;;2.95;1.48;;;37.20;50.50;;;;;;5074843;28;20452;-81
2022/12/11 06:48:43;;;;;;;4.10;1.30;;;37.00;49.50;;;;;;5082423;28;20406;-80
2022/12/11 06:51:18;;;;;;;4.05;1.50;;;37.10;49.80;;;;;;5078106;28;20893;-79
2022/12/11 06:53:55;;;;;;;3.45;1.33;;;36.90;49.70;;;;;;5089422;28;20401;-82
2022/12/11 06:56:23;;;;;;;4.60;1.50;;;36.20;50.30;;;;;;5080108;28;20374;-81
2022/12/11 06:58:51;;;;;;;2.10;1.30;;;35.40;51.30;;;;;;5077101;28;20399;-81
2022/12/11 07:01:23;;;;;;;5.85;1.35;;;34.70;52.70;;;;;;5084765;28;20469;-81
2022/12/11 07:03:53;;;;;;;3.65;1.45;;;34.90;52.00;;;;;;5077808;28;20399;-80
2022/12/11 07:06:21;;;;;;;4.45;1.42;;;35.40;52.60;;;;;;5088129;28;20444;-80
2022/12/11 07:08:48;;;;;;;4.72;1.50;;;35.90;51.80;;;;;;5091178;28;20400;-81
2022/12/11 07:11:17;;;;;;;4.85;1.52;;;35.90;50.80;;;;;;5074030;28;20516;-82
2022/12/11 07:13:44;;;;;;;2.92;1.42;;;35.90;51.50;;;;;;5077649;28;20756;-81
2022/12/11 07:16:13;;;;;;;4.70;1.50;;;36.10;51.40;;;;;;5092672;28;20376;-81
2022/12/11 07:18:48;;;;;;;3.63;1.60;;;35.90;51.40;;;;;;5079395;28;20775;-82
2022/12/11 07:21:16;;;;;;;4.57;1.60;;;35.90;51.40;;;;;;5087755;28;20384;-80
2022/12/11 07:23:43;;;;;;;4.15;1.60;;;35.90;52.30;;;;;;5076409;28;20456;-80
2022/12/11 07:26:13;;;;;;;3.03;1.40;;;35.90;52.50;;;;;;5085596;28;20389;-82
2022/12/11 07:28:41;;;;;;;3.88;1.50;;;35.90;51.80;;;;;;5089433;28;20445;-82
2022/12/11 07:31:12;;;;;;;3.95;1.50;;;35.40;51.90;;;;;;5085556;28;20385;-84
2022/12/11 07:33:39;;;;;;;5.70;1.67;;;35.00;53.00;;;;;;5083759;28;20463;-80
2022/12/11 07:36:11;;;;;;;3.85;1.40;;;34.90;53.60;;;;;;5083575;28;20410;-81
2022/12/11 07:38:38;;;;;;;4.15;1.40;;;34.70;53.60;;;;;;5078339;28;20420;-80
2022/12/11 07:41:10;;;;;;;6.82;1.60;;;34.40;54.20;;;;;;5084224;28;20386;-80
2022/12/11 07:43:37;;;;;;;3.40;1.50;;;34.00;54.30;;;;;;5083317;28;20384;-80
2022/12/11 07:46:12;;;;;;;4.50;1.50;;;33.50;54.90;;;;;;5080159;28;20382;-79
2022/12/11 07:48:42;;;;;;;4.80;1.58;;;32.90;55.90;;;;;;5087765;28;20895;-79
2022/12/11 07:51:10;;;;;;;4.55;1.60;;;32.40;57.10;;;;;;5080163;28;20428;-80
2022/12/11 07:53:38;;;;;;;5.28;1.45;;;32.10;57.90;;;;;;5085390;28;20905;-80
2022/12/11 07:56:05;;;;;;;6.05;1.70;;;32.20;57.60;;;;;;5080815;28;20389;-79
2022/12/11 07:58:32;;;;;;;4.60;1.65;;;32.30;57.90;;;;;;5058443;28;20390;-80
2022/12/11 08:00:59;;;;;;;5.00;1.80;;;32.30;57.20;;;;;;5074563;28;20425;-81
2022/12/11 08:03:27;;;;;;;3.95;1.65;;;32.10;57.70;;;;;;5084129;28;20472;-81
2022/12/11 08:05:54;;;;;;;6.67;1.73;;;31.60;58.90;;;;;;5084312;28;20376;-81
2022/12/11 08:08:21;;;;;;;4.03;1.70;;;31.10;59.70;;;;;;5089306;28;20403;-86
2022/12/11 08:10:48;;;;;;;5.40;1.80;;;30.70;60.70;;;;;;5086853;28;20442;-84
2022/12/11 08:13:15;;;;;;;4.78;1.80;;;30.30;61.60;;;;;;5091337;28;20762;-80
2022/12/11 08:15:42;;;;;;;4.53;1.80;;;29.90;62.50;;;;;;5083703;28;20454;-81
2022/12/11 08:18:09;;;;;;;3.83;1.80;;;29.60;63.60;;;;;;5078643;28;20743;-79
2022/12/11 08:20:38;;;;;;;5.70;1.90;;;29.40;63.90;;;;;;5076909;28;20930;-80
2022/12/11 08:23:05;;;;;;;3.97;1.88;;;29.20;64.40;;;;;;5084625;28;20382;-80
2022/12/11 08:25:32;;;;;;;4.93;1.77;;;29.10;64.90;;;;;;5085731;28;20380;-80
2022/12/11 08:27:59;;;;;;;7.32;2.00;;;29.00;65.20;;;;;;5088967;28;20406;-81
2022/12/11 08:30:27;;;;;;;3.92;1.73;;;28.80;65.20;;;;;;5077565;28;20465;-82
2022/12/11 08:32:54;;;;;;;5.80;1.70;;;28.70;65.50;;;;;;5090029;28;20384;-82
2022/12/11 08:35:21;;;;;;;4.10;1.63;;;28.60;66.50;;;;;;5081482;28;20390;-81
2022/12/11 08:37:48;;;;;;;6.78;2.10;;;28.50;66.80;;;;;;5087826;28;20364;-81
2022/12/11 08:40:15;;;;;;;6.03;1.90;;;28.30;67.00;;;;;;5090935;28;20418;-82
2022/12/11 08:42:42;;;;;;;4.82;1.80;;;28.20;67.20;;;;;;5090480;28;20388;-81
2022/12/11 08:45:09;;;;;;;4.53;1.70;;;28.00;68.10;;;;;;5089182;28;20380;-81
2022/12/11 08:47:39;;;;;;;4.78;1.60;;;27.90;68.50;;;;;;5079877;28;20427;-81
2022/12/11 08:50:06;;;;;;;5.05;1.63;;;27.90;68.80;;;;;;5070488;28;20461;-81
2022/12/11 08:52:36;;;;;;;6.75;1.90;;;27.80;69.20;;;;;;5073867;28;20551;-81
2022/12/11 08:55:04;;;;;;;3.60;1.58;;;27.80;68.90;;;;;;5069445;28;20440;-82
2022/12/11 08:57:31;;;;;;;5.88;1.80;;;27.70;68.90;;;;;;5070950;28;20465;-82
2022/12/11 08:59:58;;;;;;;6.03;1.88;;;27.60;69.20;;;;;;5079368;28;20407;-81
2022/12/11 09:02:25;;;;;;;6.30;1.83;;;27.50;69.40;;;;;;5072241;28;20933;-81
2022/12/11 09:04:52;;;;;;;4.72;1.80;;;27.40;69.60;;;;;;5069465;28;20921;-81
2022/12/11 09:07:20;;;;;;;5.35;1.70;;;27.30;69.90;;;;;;5051588;28;20395;-83
2022/12/11 09:09:47;;;;;;;5.28;1.80;;;27.20;70.50;;;;;;5070712;28;20414;-82
2022/12/11 09:12:14;;;;;;;5.32;1.60;;;27.10;70.80;;;;;;5081797;28;20384;-82
2022/12/11 09:14:41;;;;;;;4.00;1.70;;;27.00;71.30;;;;;;5082868;28;20473;-82
2022/12/11 09:17:08;;;;;;;5.78;1.83;;;27.00;72.60;;;;;;5070359;28;20387;-82
2022/12/11 09:19:35;;;;;;;6.13;1.75;;;26.80;72.10;;;;;;5071971;28;20388;-83
2022/12/11 09:22:02;;;;;;;5.97;1.90;;;26.80;72.40;;;;;;5071695;28;20370;-83
2022/12/11 09:24:29;;;;;;;7.80;1.85;;;26.70;72.70;;;;;;5074051;28;20386;-82
2022/12/11 09:26:56;;;;;;;5.93;1.90;;;26.60;73.40;;;;;;5075733;28;20384;-83
2022/12/11 09:29:23;;;;;;;5.15;1.80;;;26.50;73.50;;;;;;5083869;28;20412;-83
2022/12/11 09:31:51;;;;;;;6.22;1.90;;;26.40;74.10;;;;;;5069923;28;20758;-82
2022/12/11 09:34:19;;;;;;;5.20;1.73;;;26.30;73.80;;;;;;5075448;28;21127;-82
2022/12/11 09:36:46;;;;;;;4.53;1.45;;;26.30;74.40;;;;;;5078534;28;20949;-82
2022/12/11 09:39:14;;;;;;;5.38;1.70;;;26.30;74.60;;;;;;5072548;28;20467;-82
2022/12/11 09:42:20;;;;;;;5.00;1.67;;;26.20;74.20;;;;;;5069734;28;20416;-82
2022/12/11 09:44:52;;;;;;;5.25;1.60;;;26.20;74.70;;;;;;5064614;28;20374;-83
2022/12/11 09:47:33;;;;;;;6.40;1.60;;;26.10;75.10;;;;;;5070622;28;20938;-82
2022/12/11 09:50:10;;;;;;;5.45;1.67;;;26.10;75.50;;;;;;5066935;28;20946;-83
2022/12/11 09:52:41;;;;;;;7.38;1.92;;;26.00;76.00;;;;;;5073965;28;20515;-83
2022/12/11 09:55:23;;;;;;;4.72;1.65;;;26.00;76.30;;;;;;5079631;28;20472;-82
2022/12/11 09:58:05;;;;;;;4.72;1.55;;;25.90;76.80;;;;;;5080200;28;20385;-82
2022/12/11 10:00:47;;;;;;;5.45;1.70;;;25.90;77.10;;;;;;5081670;28;20871;-82
2022/12/11 10:03:52;;;;;;;5.35;1.73;;;25.80;77.10;;;;;;5094918;28;20373;-82
2022/12/11 10:06:26;;;;;;;5.97;1.90;;;25.80;78.00;;;;;;5051375;28;20375;-82
2022/12/11 10:09:00;;;;;;;3.72;1.65;;;25.70;77.20;;;;;;5042987;28;20419;-82
2022/12/11 10:11:46;;;;;;;5.97;2.00;;;25.60;78.00;;;;;;5045938;28;20380;-82
2022/12/11 10:14:36;;;;;;;5.00;1.60;;;25.70;78.30;;;;;;5045993;28;20376;-82
2022/12/11 10:17:27;;;;;;;5.75;1.67;;;25.70;78.70;;;;;;5052142;28;20396;-81
2022/12/11 10:19:59;;;;;;;5.82;1.88;;;25.60;77.80;;;;;;5054198;28;20422;-81
2022/12/11 10:22:32;;;;;;;4.13;1.83;;;25.50;78.20;;;;;;5044851;28;20379;-83
2022/12/11 10:25:22;;;;;;;6.57;2.22;;;25.50;78.00;;;;;;5052501;28;20448;-82
2022/12/11 10:27:49;;;;;;;6.28;2.40;;;25.40;78.00;;;;;;5040131;28;20400;-82
2022/12/11 10:30:22;;;;;;;6.95;2.45;;;25.40;78.60;;;;;;5052048;28;20450;-82
2022/12/11 10:33:07;;;;;;;6.85;2.67;;;25.30;78.60;;;;;;5041712;28;20359;-82
2022/12/11 10:36:00;;;;;;;6.60;2.40;;;25.30;79.40;;;;;;5050875;28;20470;-82
2022/12/11 10:38:40;;;;;;;8.20;2.80;;;25.20;80.00;;;;;;5041131;28;20392;-82
2022/12/11 10:41:37;;;;;;;7.22;2.63;;;25.20;79.70;;;;;;5054778;28;20404;-83
2022/12/11 10:44:27;;;;;;;5.72;2.00;;;25.10;80.40;;;;;;5088711;28;20376;-82
2022/12/11 10:47:13;;;;;;;5.82;2.38;;;25.00;80.80;;;;;;5068293;28;20378;-82
2022/12/11 10:50:04;;;;;;;5.60;2.20;;;24.80;81.30;;;;;;5098184;28;20404;-82
2022/12/11 10:52:37;;;;;;;5.03;2.23;;;24.70;82.40;;;;;;5088741;28;20403;-82
2022/12/11 10:55:08;;;;;;;4.63;1.90;;;24.60;82.80;;;;;;5086074;28;20806;-81
2022/12/11 10:57:38;;;;;;;5.30;2.10;;;24.50;83.00;;;;;;5073965;28;20464;-81
2022/12/11 11:00:25;;;;;;;5.30;1.97;;;24.50;83.80;;;;;;5073396;28;20402;-81
2022/12/11 11:02:52;;;;;;;6.60;1.70;;;24.40;83.60;;;;;;5073076;28;20475;-82
2022/12/11 11:05:35;;;;;;;5.53;1.90;;;24.40;84.10;;;;;;5077718;28;20496;-81
2022/12/11 11:08:15;;;;;;;4.05;1.75;;;24.30;84.40;;;;;;5080581;28;20387;-81
2022/12/11 11:10:56;;;;;;;5.33;1.63;;;24.30;84.80;;;;;;5073066;28;20386;-81
2022/12/11 11:13:26;;;;;;;5.22;1.70;;;24.20;85.20;;;;;;5073532;28;20389;-82
2022/12/11 11:16:06;;;;;;;7.65;1.50;;;24.20;85.80;;;;;;5073223;28;20435;-81
2022/12/11 11:18:33;;;;;;;5.03;1.47;;;24.20;86.30;;;;;;5077809;28;20941;-81
2022/12/11 11:21:01;;;;;;;5.60;1.67;;;24.20;86.10;;;;;;5079624;28;20777;-82
2022/12/11 11:23:29;;;;;;;3.63;1.40;;;24.10;86.90;;;;;;5072209;28;20757;-81
2022/12/11 11:26:01;;;;;;;6.57;1.70;;;24.10;87.00;;;;;;5074420;28;20393;-81
2022/12/11 11:28:35;;;;;;;4.13;1.48;;;24.00;87.20;;;;;;5076714;28;20396;-81
2022/12/11 11:31:06;;;;;;;5.78;1.50;;;24.00;88.10;;;;;;5088081;28;20415;-81
2022/12/11 11:33:35;;;;;;;5.30;1.70;;;24.00;89.10;;;;;;5093689;28;20416;-82
2022/12/11 11:36:05;;;;;;;5.60;1.63;;;23.90;89.00;;;;;;5094959;28;20467;-82
2022/12/11 11:39:06;;;;;;;6.75;2.95;;;23.80;89.40;;;;;;5086669;28;20445;-82
2022/12/11 11:42:00;;;;;;;9.73;4.88;;;23.80;90.00;;;;;;5075530;28;20394;-81
2022/12/11 11:44:33;;;;;;;8.25;5.00;;;23.80;90.20;;;;;;5080422;28;20389;-82
2022/12/11 11:47:04;;;;;;;7.43;4.05;;;23.70;90.40;;;;;;5092665;28;20393;-82
2022/12/11 11:49:37;;;;;;;8.52;2.55;;;23.70;90.70;;;;;;5088840;28;20488;-82
2022/12/11 11:52:12;;;;;;;5.93;2.40;;;23.60;91.00;;;;;;5075506;28;20385;-82
2022/12/11 11:54:54;;;;;;;6.63;2.50;;;23.60;91.20;;;;;;5079332;28;20383;-81
2022/12/11 11:57:50;;;;;;;7.15;2.10;;;23.50;91.60;;;;;;5073434;28;20737;-81
2022/12/11 12:00:26;;;;;;;5.55;2.00;;;23.40;91.90;;;;;;5077971;28;20401;-81
2022/12/11 12:03:00;;;;;;;6.70;2.27;;;23.40;92.10;;;;;;5074521;28;20883;-81
2022/12/11 12:05:51;;;;;;;4.78;2.00;;;23.40;92.70;;;;;;5071751;28;20382;-81
2022/12/11 12:08:27;;;;;;;6.10;2.10;;;23.40;92.70;;;;;;5071282;28;20393;-81
2022/12/11 12:11:20;;;;;;;5.95;1.95;;;23.30;92.90;;;;;;5080396;28;20389;-81
2022/12/11 12:14:10;;;;;;;5.97;2.00;;;23.30;93.10;;;;;;5070800;28;20392;-82
2022/12/11 12:16:58;;;;;;;4.15;1.88;;;23.30;93.70;;;;;;5060581;28;20384;-81
2022/12/11 12:19:37;;;;;;;7.25;2.00;;;23.30;93.90;;;;;;5071243;28;20378;-81
2022/12/11 12:22:27;;;;;;;4.03;1.90;;;23.30;94.20;;;;;;5071586;28;20850;-81
2022/12/11 12:25:01;;;;;;;4.97;2.03;;;23.20;94.60;;;;;;5059930;28;20877;-81
2022/12/11 12:27:39;;;;;;;4.10;1.73;;;23.20;94.80;;;;;;5072622;28;20402;-81
2022/12/11 12:30:14;;;;;;;6.38;2.00;;;23.20;95.10;;;;;;5071329;28;20398;-81
2022/12/11 12:32:46;;;;;;;5.88;2.40;;;23.20;95.30;;;;;;5071141;28;20727;-81
2022/12/11 12:35:36;;;;;;;5.45;2.17;;;23.20;95.30;;;;;;5071397;28;20382;-81
2022/12/11 12:38:15;;;;;;;6.87;2.33;;;23.20;95.30;;;;;;5070839;28;20366;-81
2022/12/11 12:40:48;;;;;;;6.97;2.40;;;23.10;95.60;;;;;;5070978;28;20386;-80
2022/12/11 12:43:18;;;;;;;6.20;2.50;;;23.00;96.00;;;;;;5072839;28;20443;-81
2022/12/11 12:45:57;;;;;;;8.20;2.70;;;22.90;96.30;;;;;;5070392;28;20411;-82
2022/12/11 12:48:26;;;;;;;7.32;2.35;;;22.80;96.80;;;;;;5070832;28;20447;-81
2022/12/11 12:50:55;;;;;;;7.90;2.47;;;22.80;97.10;;;;;;5070294;28;20874;-81
2022/12/11 12:53:28;;;;;;;9.93;2.80;;;22.70;97.60;;;;;;5070819;28;20845;-82
2022/12/11 12:55:55;;;;;;;8.27;2.70;;;22.70;98.20;;;;;;5064894;28;20385;-81
2022/12/11 12:58:28;;;;;;;6.38;2.47;;;22.60;98.50;;;;;;5070953;28;20404;-82
2022/12/11 13:01:13;;;;;;;7.13;2.60;;;22.50;98.80;;;;;;5070485;28;20477;-81
2022/12/11 13:03:52;;;;;;;8.88;2.80;;;22.50;99.30;;;;;;5070575;28;20472;-81
2022/12/11 13:06:44;;;;;;;5.90;2.60;;;22.50;99.70;;;;;;5075034;28;20524;-82
2022/12/11 13:09:25;;;;;;;12.20;2.90;;;22.60;99.90;;;;;;5071971;28;20497;-81
2022/12/11 13:11:56;;;;;;;8.55;2.60;;;22.50;99.90;;;;;;5070534;28;20382;-82
2022/12/11 13:14:27;;;;;;;11.38;2.97;;;22.60;99.90;;;;;;5077172;28;20394;-81
2022/12/11 13:17:08;;;;;;;12.82;3.15;;;22.60;99.90;;;;;;5081342;28;20384;-82
2022/12/11 13:19:35;;;;;;;9.98;3.17;;;22.60;99.90;;;;;;5070159;28;20528;-82
2022/12/11 13:22:20;;;;;;;13.80;3.70;;;22.50;99.90;;;;;;5070456;28;20406;-81